createdAt,value
2019-04-06T00:01:59.761Z,97020.67
2019-04-06T00:04:28.090Z,97028.28
2019-04-06T00:06:56.466Z,97023.66
2019-04-06T00:09:24.834Z,97026.38
2019-04-06T00:11:53.229Z,97025.86
2019-04-06T00:14:21.606Z,97026.34
2019-04-06T00:16:49.966Z,97023.38
2019-04-06T00:19:18.295Z,97020.41
2019-04-06T00:21:46.565Z,97024.35
2019-04-06T00:24:14.887Z,97028.66
2019-04-06T00:26:43.197Z,97021.50
2019-04-06T00:29:11.892Z,97030.45
2019-04-06T00:31:58.211Z,97027.35
2019-04-06T00:34:26.606Z,97026.27
2019-04-06T00:36:54.969Z,97027.38
2019-04-06T00:39:23.305Z,97027.24
2019-04-06T00:41:51.790Z,97022.02
2019-04-06T00:44:20.097Z,97023.42
2019-04-06T00:46:48.497Z,97026.64
2019-04-06T00:49:16.798Z,97029.16
2019-04-06T00:51:45.280Z,97034.62
2019-04-06T00:54:13.594Z,97039.48
2019-04-06T00:56:42.200Z,97036.50
2019-04-06T00:59:10.619Z,97037.34
2019-04-06T01:01:39.298Z,97041.16
2019-04-06T01:04:07.982Z,97044.24
2019-04-06T01:06:36.489Z,97039.61
2019-04-06T01:09:08.019Z,97052.45
2019-04-06T01:11:36.355Z,97046.38
2019-04-06T01:14:05.024Z,97049.84
2019-04-06T01:16:33.342Z,97054.10
2019-04-06T01:19:01.659Z,97054.94
2019-04-06T01:21:30.050Z,97057.69
2019-04-06T01:23:58.402Z,97067.41
2019-04-06T01:26:26.722Z,97063.39
2019-04-06T01:28:55.169Z,97066.13
2019-04-06T01:31:23.875Z,97060.16
2019-04-06T01:33:52.311Z,97060.98
2019-04-06T01:36:20.619Z,97062.29
2019-04-06T01:38:50.271Z,97059.17
2019-04-06T01:41:18.586Z,97054.64
2019-04-06T01:43:46.906Z,97054.50
2019-04-06T01:46:15.217Z,97058.05
2019-04-06T01:48:43.598Z,97059.32
2019-04-06T01:51:11.976Z,97049.58
2019-04-06T01:53:40.306Z,97049.33
2019-04-06T01:56:17.912Z,97052.40
2019-04-06T01:58:39.299Z,97048.00
2019-04-06T02:01:25.394Z,97046.20
2019-04-06T02:03:53.782Z,97039.53
2019-04-06T02:06:22.122Z,97040.56
2019-04-06T02:08:50.612Z,97045.30
2019-04-06T02:11:19.284Z,97049.34
2019-04-06T02:13:47.649Z,97053.14
2019-04-06T02:16:16.343Z,97053.36
2019-04-06T02:18:44.644Z,97046.97
2019-04-06T02:21:13.291Z,97047.70
2019-04-06T02:23:41.592Z,97049.39
2019-04-06T02:26:10.211Z,97052.08
2019-04-06T02:28:38.543Z,97058.03
2019-04-06T02:31:08.460Z,97055.80
2019-04-06T02:33:47.373Z,97058.95
2019-04-06T02:36:20.212Z,97061.47
2019-04-06T02:38:50.222Z,97057.44
2019-04-06T02:41:20.177Z,97056.00
2019-04-06T02:43:48.571Z,97058.53
2019-04-06T02:46:16.943Z,97054.88
2019-04-06T02:48:45.270Z,97058.06
2019-04-06T02:51:13.582Z,97061.55
2019-04-06T02:53:41.957Z,97059.55
2019-04-06T02:56:10.593Z,97049.41
2019-04-06T02:58:38.895Z,97064.13
2019-04-06T03:01:07.298Z,97062.91
2019-04-06T03:03:35.682Z,97062.39
2019-04-06T03:06:04.581Z,97063.48
2019-04-06T03:08:32.901Z,97062.34
2019-04-06T03:11:01.634Z,97062.14
2019-04-06T03:13:29.947Z,97060.83
2019-04-06T03:15:58.640Z,97061.70
2019-04-06T03:18:27.034Z,97068.47
2019-04-06T03:20:55.349Z,97060.48
2019-04-06T03:23:24.930Z,97068.84
2019-04-06T03:25:54.385Z,97063.34
2019-04-06T03:28:23.121Z,97065.13
2019-04-06T03:30:51.417Z,97069.81
2019-04-06T03:33:20.046Z,97061.98
2019-04-06T03:35:50.379Z,97067.11
2019-04-06T03:38:18.659Z,97069.63
2019-04-06T03:40:46.983Z,97065.11
2019-04-06T03:43:15.344Z,97069.19
2019-04-06T03:45:43.728Z,97069.52
2019-04-06T03:48:12.372Z,97073.11
2019-04-06T03:50:41.074Z,97077.73
2019-04-06T03:53:09.400Z,97075.44
2019-04-06T03:55:37.913Z,97072.55
2019-04-06T03:58:06.536Z,97081.50
2019-04-06T04:00:34.852Z,97077.31
2019-04-06T04:03:03.161Z,97080.72
2019-04-06T04:05:31.572Z,97078.09
2019-04-06T04:07:59.960Z,97081.67
2019-04-06T04:10:34.110Z,97078.69
2019-04-06T04:13:02.541Z,97078.58
2019-04-06T04:15:30.979Z,97080.24
2019-04-06T04:17:59.510Z,97069.52
2019-04-06T04:20:28.026Z,97077.48
2019-04-06T04:22:56.412Z,97076.73
2019-04-06T04:25:24.863Z,97083.26
2019-04-06T04:27:53.195Z,97085.05
2019-04-06T04:30:32.185Z,97081.36
2019-04-06T04:32:51.556Z,97082.26
2019-04-06T04:35:19.938Z,97080.83
2019-04-06T04:37:48.550Z,97080.92
2019-04-06T04:40:17.316Z,97085.18
2019-04-06T04:42:45.745Z,97087.58
2019-04-06T04:45:14.646Z,97087.61
2019-04-06T04:47:43.160Z,97088.08
2019-04-06T04:50:11.734Z,97090.37
2019-04-06T04:52:40.051Z,97097.59
2019-04-06T04:55:08.442Z,97093.08
2019-04-06T04:57:41.139Z,97100.22
2019-04-06T05:00:07.952Z,97102.37
2019-04-06T05:02:36.217Z,97103.91
2019-04-06T05:05:06.308Z,97113.02
2019-04-06T05:07:35.052Z,97118.13
2019-04-06T05:10:04.271Z,97115.03
2019-04-06T05:12:32.655Z,97116.09
2019-04-06T05:15:10.225Z,97118.49
2019-04-06T05:17:38.602Z,97125.71
2019-04-06T05:20:07.871Z,97131.49
2019-04-06T05:22:36.181Z,97126.80
2019-04-06T05:25:05.933Z,97131.77
2019-04-06T05:27:34.325Z,97129.25
2019-04-06T05:30:03.014Z,97134.07
2019-04-06T05:32:31.686Z,97134.77
2019-04-06T05:35:00.000Z,97136.69
2019-04-06T05:37:28.338Z,97143.76
2019-04-06T05:39:56.650Z,97143.76
2019-04-06T05:42:24.966Z,97141.36
2019-04-06T05:44:54.287Z,97145.98
2019-04-06T05:47:22.596Z,97147.30
2019-04-06T05:49:50.924Z,97152.22
2019-04-06T05:52:19.279Z,97155.72
2019-04-06T05:54:47.634Z,97160.34
2019-04-06T05:57:15.946Z,97159.07
2019-04-06T05:59:44.562Z,97137.39
2019-04-06T06:02:12.895Z,97162.28
2019-04-06T06:04:41.431Z,97164.72
2019-04-06T06:07:09.722Z,97169.60
2019-04-06T06:09:38.397Z,97161.14
2019-04-06T06:12:07.964Z,97171.93
2019-04-06T06:14:36.447Z,97168.61
2019-04-06T06:17:05.180Z,97175.69
2019-04-06T06:19:33.530Z,97176.84
2019-04-06T06:22:01.903Z,97183.31
2019-04-06T06:24:30.232Z,97179.38
2019-04-06T06:26:58.770Z,97191.20
2019-04-06T06:29:27.543Z,97189.84
2019-04-06T06:31:55.945Z,97194.34
2019-04-06T06:34:24.260Z,97185.98
2019-04-06T06:36:52.590Z,97190.06
2019-04-06T06:39:20.913Z,97182.45
2019-04-06T06:41:49.311Z,97195.91
2019-04-06T06:44:17.949Z,97194.09
2019-04-06T06:46:46.343Z,97191.39
2019-04-06T06:49:14.659Z,97199.70
2019-04-06T06:51:43.063Z,97198.89
2019-04-06T06:54:11.480Z,97205.69
2019-04-06T06:56:39.840Z,97202.73
2019-04-06T06:59:08.114Z,97208.94
2019-04-06T07:01:36.421Z,97210.02
2019-04-06T07:04:05.023Z,97206.55
2019-04-06T07:06:33.422Z,97206.55
2019-04-06T07:09:01.759Z,97218.69
2019-04-06T07:11:30.187Z,97215.62
2019-04-06T07:13:58.591Z,97218.87
2019-04-06T07:16:26.915Z,97215.76
2019-04-06T07:18:55.229Z,97219.91
2019-04-06T07:21:23.561Z,97219.69
2019-04-06T07:23:51.873Z,97219.37
2019-04-06T07:26:20.203Z,97222.52
2019-04-06T07:28:48.507Z,97220.86
2019-04-06T07:31:16.842Z,97225.22
2019-04-06T07:33:45.158Z,97222.09
2019-04-06T07:36:13.471Z,97211.88
2019-04-06T07:38:41.797Z,97223.98
2019-04-06T07:41:10.149Z,97212.57
2019-04-06T07:43:38.447Z,97216.11
2019-04-06T07:46:06.754Z,97210.95
2019-04-06T07:48:35.307Z,97209.90
2019-04-06T07:51:03.705Z,97215.28
2019-04-06T07:53:32.023Z,97216.42
2019-04-06T07:56:00.339Z,97214.05
2019-04-06T07:58:28.666Z,97218.47
2019-04-06T08:00:56.997Z,97216.66
2019-04-06T08:03:25.305Z,97219.56
2019-04-06T08:05:53.803Z,97213.56
2019-04-06T08:08:22.367Z,97215.37
2019-04-06T08:10:50.730Z,97209.33
2019-04-06T08:13:19.037Z,97207.41
2019-04-06T08:15:47.468Z,97209.41
2019-04-06T08:18:15.785Z,97207.09
2019-04-06T08:20:44.574Z,97208.02
2019-04-06T08:23:13.036Z,97205.68
2019-04-06T08:25:41.448Z,97201.31
2019-04-06T08:28:09.843Z,97208.00
2019-04-06T08:30:45.422Z,97208.47
2019-04-06T08:33:08.259Z,97202.16
2019-04-06T08:35:36.896Z,97209.41
2019-04-06T08:38:05.449Z,97206.76
2019-04-06T08:40:34.235Z,97200.36
2019-04-06T08:43:02.580Z,97204.05
2019-04-06T08:45:30.899Z,97204.00
2019-04-06T08:47:59.451Z,97210.48
2019-04-06T08:50:27.942Z,97208.08
2019-04-06T08:52:56.753Z,97211.61
2019-04-06T08:55:25.044Z,97203.13
2019-04-06T08:57:53.421Z,97208.38
2019-04-06T09:00:21.876Z,97209.39
2019-04-06T09:02:50.196Z,97214.84
2019-04-06T09:05:18.519Z,97205.59
2019-04-06T09:07:46.943Z,97202.95
2019-04-06T09:10:15.507Z,97207.52
2019-04-06T09:12:44.336Z,97204.59
2019-04-06T09:15:13.098Z,97208.23
2019-04-06T09:17:41.474Z,97209.78
2019-04-06T09:20:10.263Z,97212.65
2019-04-06T09:22:38.906Z,97212.51
2019-04-06T09:25:07.927Z,97203.05
2019-04-06T09:27:36.274Z,97204.72
2019-04-06T09:30:07.130Z,97208.73
2019-04-06T09:32:35.655Z,97210.66
2019-04-06T09:35:05.004Z,97204.88
2019-04-06T09:37:33.770Z,97210.55
2019-04-06T09:40:02.073Z,97202.95
2019-04-06T09:42:30.903Z,97193.56
2019-04-06T09:45:16.178Z,97194.98
2019-04-06T09:47:46.632Z,97195.94
2019-04-06T09:50:28.844Z,97195.33
2019-04-06T09:53:01.749Z,97196.56
2019-04-06T09:55:43.646Z,97188.87
2019-04-06T09:58:16.497Z,97192.89
2019-04-06T10:00:52.151Z,97192.02
2019-04-06T10:03:22.275Z,97187.05
2019-04-06T10:05:55.108Z,97195.86
2019-04-06T10:08:37.712Z,97198.47
2019-04-06T10:11:07.884Z,97192.41
2019-04-06T10:13:40.695Z,97197.22
2019-04-06T10:16:22.583Z,97191.54
2019-04-06T10:18:52.888Z,97197.35
2019-04-06T10:21:25.400Z,97194.11
2019-04-06T10:24:04.798Z,97191.67
2019-04-06T10:26:51.153Z,97190.28
2019-04-06T10:29:33.212Z,97182.13
2019-04-06T10:32:05.903Z,97183.47
2019-04-06T10:34:45.249Z,97176.00
2019-04-06T10:37:30.354Z,97174.20
2019-04-06T10:40:00.902Z,97169.75
2019-04-06T10:42:39.765Z,97170.45
2019-04-06T10:45:27.874Z,97175.45
2019-04-06T10:47:58.370Z,97172.67
2019-04-06T10:50:44.347Z,97161.57
2019-04-06T10:53:16.826Z,97160.02
2019-04-06T10:55:46.796Z,97166.24
2019-04-06T10:58:17.056Z,97161.04
2019-04-06T11:00:50.193Z,97162.86
2019-04-06T11:03:32.001Z,97152.53
2019-04-06T11:06:04.660Z,97158.52
2019-04-06T11:08:47.281Z,97146.34
2019-04-06T11:11:20.778Z,97144.80
2019-04-06T11:13:51.141Z,97126.08
2019-04-06T11:16:36.550Z,97133.98
2019-04-06T11:19:06.568Z,97127.93
2019-04-06T11:21:37.278Z,97127.93
2019-04-06T11:24:22.498Z,97117.91
2019-04-06T11:26:55.322Z,97116.17
2019-04-06T11:29:25.300Z,97113.31
2019-04-06T11:32:01.383Z,97105.77
2019-04-06T11:34:47.782Z,97110.75
2019-04-06T11:37:20.974Z,97100.34
2019-04-06T11:39:54.088Z,97093.09
2019-04-06T11:42:40.499Z,97089.45
2019-04-06T11:45:11.600Z,97087.33
2019-04-06T11:47:50.572Z,97080.21
2019-04-06T11:50:35.874Z,97077.70
2019-04-06T11:53:16.090Z,97083.24
2019-04-06T11:55:49.326Z,97079.96
2019-04-06T11:58:19.519Z,97085.00
2019-04-06T12:01:06.134Z,97079.17
2019-04-06T12:03:49.886Z,97076.32
2019-04-06T12:06:22.829Z,97069.81
2019-04-06T12:08:59.533Z,97068.34
2019-04-06T12:11:36.064Z,97060.05
2019-04-06T12:14:22.470Z,97049.00
2019-04-06T12:16:55.264Z,97053.59
2019-04-06T12:19:27.893Z,97037.29
2019-04-06T12:22:03.571Z,97035.20
2019-04-06T12:24:45.664Z,97026.86
2019-04-06T12:27:18.506Z,97025.34
2019-04-06T12:29:48.830Z,97026.88
2019-04-06T12:32:21.553Z,97022.26
2019-04-06T12:35:03.537Z,97022.22
2019-04-06T12:37:39.489Z,97027.80
2019-04-06T12:40:12.654Z,97000.50
2019-04-06T12:42:51.615Z,97037.00
2019-04-06T12:45:21.728Z,97036.81
2019-04-06T12:48:07.184Z,97028.97
2019-04-06T12:50:37.411Z,97028.52
2019-04-06T12:53:26.105Z,97022.55
2019-04-06T12:55:58.891Z,97015.45
2019-04-06T12:58:31.690Z,97009.88
2019-04-06T13:01:04.309Z,97012.70
2019-04-06T13:03:37.016Z,97007.94
2019-04-06T13:06:10.133Z,96999.76
2019-04-06T13:08:43.271Z,96996.46
2019-04-06T13:11:13.687Z,96993.73
2019-04-06T13:13:46.559Z,96991.81
2019-04-06T13:16:17.775Z,96990.41
2019-04-06T13:19:04.382Z,96991.73
2019-04-06T13:21:36.961Z,96997.13
2019-04-06T13:24:10.107Z,96987.86
2019-04-06T13:26:46.071Z,96991.59
2019-04-06T13:29:29.228Z,96989.19
2019-04-06T13:32:15.575Z,96978.30
2019-04-06T13:34:46.372Z,96979.67
2019-04-06T13:37:32.871Z,96981.20
2019-04-06T13:40:08.243Z,96982.80
2019-04-06T13:42:38.189Z,96985.66
2019-04-06T13:45:22.845Z,96981.53
2019-04-06T13:48:08.954Z,96985.68
2019-04-06T13:50:41.899Z,96974.12
2019-04-06T13:53:14.801Z,96977.17
2019-04-06T13:56:00.871Z,96978.19
2019-04-06T13:58:48.884Z,96974.84
2019-04-06T14:01:21.541Z,96972.30
2019-04-06T14:03:54.589Z,96975.45
2019-04-06T14:06:33.676Z,96976.27
2019-04-06T14:09:03.563Z,96964.19
2019-04-06T14:11:33.540Z,96960.95
2019-04-06T14:14:15.371Z,96960.95
2019-04-06T14:17:02.225Z,96962.63
2019-04-06T14:19:47.273Z,96968.30
2019-04-06T14:22:17.387Z,96969.55
2019-04-06T14:25:02.579Z,96966.09
2019-04-06T14:27:32.700Z,96965.45
2019-04-06T14:30:08.509Z,96966.31
2019-04-06T14:32:54.627Z,96963.06
2019-04-06T14:35:27.893Z,96970.78
2019-04-06T14:37:57.893Z,96970.66
2019-04-06T14:40:43.729Z,96961.03
2019-04-06T14:43:30.113Z,96969.63
2019-04-06T14:46:03.129Z,96970.88
2019-04-06T14:48:36.087Z,96966.66
2019-04-06T14:51:06.033Z,96968.73
2019-04-06T14:53:39.121Z,96965.06
2019-04-06T14:56:25.548Z,96964.45
2019-04-06T14:59:04.019Z,96966.77
2019-04-06T15:01:42.143Z,96970.33
2019-04-06T15:04:26.189Z,96969.19
2019-04-06T15:07:11.598Z,96965.37
2019-04-06T15:09:37.020Z,96960.33
2019-04-06T15:12:16.275Z,96966.84
2019-04-06T15:14:49.350Z,96960.37
2019-04-06T15:17:22.238Z,96956.55
2019-04-06T15:19:52.180Z,96960.11
2019-04-06T15:22:27.878Z,96961.81
2019-04-06T15:25:06.382Z,96957.05
2019-04-06T15:27:54.405Z,96951.47
2019-04-06T15:30:36.141Z,96953.02
2019-04-06T15:33:22.331Z,96947.45
2019-04-06T15:35:52.272Z,96952.15
2019-04-06T15:38:23.647Z,96956.64
2019-04-06T15:40:59.544Z,96958.64
2019-04-06T15:43:29.535Z,96959.25
2019-04-06T15:45:59.497Z,96958.36
2019-04-06T15:48:36.982Z,96962.42
2019-04-06T15:51:07.429Z,96965.44
2019-04-06T15:53:46.356Z,96960.39
2019-04-06T15:56:16.290Z,96964.54
2019-04-06T15:58:46.238Z,96954.75
2019-04-06T16:01:22.179Z,96962.67
2019-04-06T16:04:08.558Z,96962.74
2019-04-06T16:06:41.565Z,96958.38
2019-04-06T16:09:14.228Z,96956.19
2019-04-06T16:12:02.539Z,96958.24
2019-04-06T16:14:41.917Z,96954.63
2019-04-06T16:17:21.514Z,96962.17
2019-04-06T16:19:56.017Z,96960.72
2019-04-06T16:22:29.148Z,96963.70
2019-04-06T16:24:59.147Z,96967.52
2019-04-06T16:27:29.114Z,96967.92
2019-04-06T16:29:59.477Z,96970.08
2019-04-06T16:32:37.885Z,96966.67
2019-04-06T16:35:16.607Z,96974.09
2019-04-06T16:37:52.648Z,96974.09
2019-04-06T16:40:22.670Z,96975.17
2019-04-06T16:43:08.728Z,96976.39
2019-04-06T16:45:47.603Z,96973.37
2019-04-06T16:48:33.967Z,96976.88
2019-04-06T16:51:06.610Z,96979.43
2019-04-06T16:53:39.556Z,96985.11
2019-04-06T16:56:09.823Z,96985.38
2019-04-06T16:58:45.858Z,96987.48
2019-04-06T17:01:18.898Z,96991.62
2019-04-06T17:03:51.529Z,96989.43
2019-04-06T17:06:24.190Z,96992.92
2019-04-06T17:08:56.713Z,96994.70
2019-04-06T17:11:36.263Z,97005.51
2019-04-06T17:14:06.643Z,97002.46
2019-04-06T17:16:46.512Z,97014.72
2019-04-06T17:19:16.656Z,97009.47
2019-04-06T17:21:46.988Z,97013.04
2019-04-06T17:24:28.563Z,97013.58
2019-04-06T17:27:07.436Z,97009.78
2019-04-06T17:29:40.502Z,97009.16
2019-04-06T17:32:13.703Z,97017.13
2019-04-06T17:34:54.420Z,97017.79
2019-04-06T17:37:24.025Z,97026.48
2019-04-06T17:40:12.334Z,97023.20
2019-04-06T17:42:45.906Z,97030.50
2019-04-06T17:45:33.937Z,97038.13
2019-04-06T17:48:12.517Z,97041.88
2019-04-06T17:50:42.466Z,97033.86
2019-04-06T17:53:20.944Z,97037.91
2019-04-06T17:56:06.065Z,97039.93
2019-04-06T17:58:36.104Z,97033.02
2019-04-06T18:01:11.862Z,97036.73
2019-04-06T18:03:59.970Z,97045.95
2019-04-06T18:06:46.242Z,97042.31
2019-04-06T18:09:28.154Z,97050.33
2019-04-06T18:12:14.020Z,97047.09
2019-04-06T18:14:42.855Z,97054.35
2019-04-06T18:17:11.398Z,97049.23
2019-04-06T18:19:40.087Z,97054.74
2019-04-06T18:22:08.863Z,97055.39
2019-04-06T18:24:37.414Z,97064.48
2019-04-06T18:27:06.415Z,97060.79
2019-04-06T18:29:35.287Z,97067.19
2019-04-06T18:32:05.293Z,97062.05
2019-04-06T18:34:33.630Z,97056.20
2019-04-06T18:37:03.682Z,97066.78
2019-04-06T18:39:32.445Z,97068.00
2019-04-06T18:42:00.942Z,97069.13
2019-04-06T18:44:29.743Z,97067.69
2019-04-06T18:46:58.407Z,97074.36
2019-04-06T18:49:27.594Z,97072.75
2019-04-06T18:51:56.077Z,97077.47
2019-04-06T18:54:24.791Z,97071.81
2019-04-06T18:56:53.398Z,97083.80
2019-04-06T18:59:21.846Z,97085.81
2019-04-06T19:01:50.797Z,97088.76
2019-04-06T19:04:19.431Z,97088.29
2019-04-06T19:06:48.162Z,97091.92
2019-04-06T19:09:23.559Z,97089.25
2019-04-06T19:11:54.321Z,97086.45
2019-04-06T19:14:16.964Z,97095.47
2019-04-06T19:16:45.891Z,97091.80
2019-04-06T19:19:14.565Z,97100.06
2019-04-06T19:21:43.690Z,97092.92
2019-04-06T19:24:12.228Z,97092.80
2019-04-06T19:26:41.029Z,97099.73
2019-04-06T19:29:10.817Z,97099.32
2019-04-06T19:31:39.238Z,97102.63
2019-04-06T19:34:07.668Z,97107.64
2019-04-06T19:36:36.258Z,97096.67
2019-04-06T19:39:07.919Z,97107.83
2019-04-06T19:41:36.293Z,97103.00
2019-04-06T19:44:04.884Z,97097.31
2019-04-06T19:46:33.973Z,97094.74
2019-04-06T19:49:02.922Z,97083.61
2019-04-06T19:51:32.064Z,97089.81
2019-04-06T19:54:04.345Z,97093.66
2019-04-06T19:56:31.314Z,97082.16
2019-04-06T19:58:59.684Z,97092.00
2019-04-06T20:01:28.113Z,97097.08
2019-04-06T20:03:56.382Z,97085.52
2019-04-06T20:06:24.958Z,97087.61
2019-04-06T20:08:53.277Z,97084.30
2019-04-06T20:11:22.023Z,97082.80
2019-04-06T20:13:50.667Z,97076.20
2019-04-06T20:16:20.070Z,97079.37
2019-04-06T20:18:49.048Z,97081.16
2019-04-06T20:21:17.675Z,97081.01
2019-04-06T20:23:45.977Z,97075.96
2019-04-06T20:26:14.317Z,97071.23
2019-04-06T20:28:42.667Z,97064.14
2019-04-06T20:31:11.548Z,97062.52
2019-04-06T20:33:48.151Z,97061.36
2019-04-06T20:36:10.400Z,97054.84
2019-04-06T20:38:39.057Z,97058.84
2019-04-06T20:41:07.414Z,97052.55
2019-04-06T20:43:35.717Z,97046.66
2019-04-06T20:46:04.767Z,97048.72
2019-04-06T20:48:34.661Z,97049.82
2019-04-06T20:51:03.142Z,97049.13
2019-04-06T20:53:31.568Z,97045.77
2019-04-06T20:56:00.684Z,97051.33
2019-04-06T20:58:29.286Z,97054.27
2019-04-06T21:00:57.680Z,97055.59
2019-04-06T21:03:26.547Z,97051.13
2019-04-06T21:05:57.234Z,97048.41
2019-04-06T21:08:25.870Z,97055.59
2019-04-06T21:10:54.213Z,97047.25
2019-04-06T21:13:22.582Z,97044.20
2019-04-06T21:15:51.030Z,97038.95
2019-04-06T21:18:19.450Z,97037.95
2019-04-06T21:20:48.007Z,97040.88
2019-04-06T21:23:17.200Z,97033.00
2019-04-06T21:25:45.712Z,97036.11
2019-04-06T21:28:14.437Z,97037.78
2019-04-06T21:30:43.160Z,97035.84
2019-04-06T21:33:12.269Z,97024.92
2019-04-06T21:35:40.811Z,97029.00
2019-04-06T21:38:09.221Z,97030.27
2019-04-06T21:40:38.542Z,97027.17
2019-04-06T21:43:07.132Z,97024.75
2019-04-06T21:45:35.912Z,97028.85
2019-04-06T21:48:05.075Z,97016.90
2019-04-06T21:50:33.426Z,97016.42
2019-04-06T21:53:01.732Z,97016.59
2019-04-06T21:55:30.080Z,97013.80
2019-04-06T21:57:58.419Z,97015.11
2019-04-06T22:00:43.716Z,97012.46
2019-04-06T22:03:12.164Z,97021.60
2019-04-06T22:05:41.059Z,97015.13
2019-04-06T22:08:09.415Z,97012.03
2019-04-06T22:10:37.908Z,97014.02
2019-04-06T22:13:07.372Z,97012.44
2019-04-06T22:15:36.139Z,97012.14
2019-04-06T22:18:06.122Z,97002.10
2019-04-06T22:20:34.754Z,97004.25
2019-04-06T22:23:03.056Z,97004.47
2019-04-06T22:25:31.370Z,97002.15
2019-04-06T22:27:59.723Z,97003.09
2019-04-06T22:30:28.116Z,96991.98
2019-04-06T22:32:56.575Z,97000.73
2019-04-06T22:35:24.970Z,97001.27
2019-04-06T22:37:55.232Z,96997.45
2019-04-06T22:40:23.452Z,96990.46
2019-04-06T22:42:51.913Z,96991.63
2019-04-06T22:45:21.952Z,96987.27
2019-04-06T22:47:50.815Z,96980.67
2019-04-06T22:50:19.902Z,96980.30
2019-04-06T22:52:48.877Z,96980.08
2019-04-06T22:55:17.675Z,96973.25
2019-04-06T22:57:46.628Z,96967.45
2019-04-06T23:00:18.404Z,96965.81
2019-04-06T23:05:51.799Z,96966.36
2019-04-06T23:08:20.313Z,96963.23
2019-04-06T23:10:48.801Z,96962.95
2019-04-06T23:13:17.706Z,96959.02
2019-04-06T23:15:47.925Z,96957.59
2019-04-06T23:18:16.553Z,96957.27
2019-04-06T23:20:44.874Z,96954.86
2019-04-06T23:23:14.245Z,96958.36
2019-04-06T23:25:42.669Z,96949.66
2019-04-06T23:28:11.797Z,96951.54
2019-04-06T23:30:40.106Z,96948.93
2019-04-06T23:33:08.520Z,96952.28
2019-04-06T23:35:36.965Z,96950.53
2019-04-06T23:38:05.788Z,96949.61
2019-04-06T23:40:34.274Z,96944.55
2019-04-06T23:43:02.889Z,96945.69
2019-04-06T23:45:31.179Z,96942.69
2019-04-06T23:47:59.620Z,96940.98
2019-04-06T23:50:28.194Z,96939.67
2019-04-06T23:52:57.267Z,96940.39
2019-04-06T23:55:26.127Z,96942.69
2019-04-06T23:57:54.690Z,96934.12
